sensor_id;sensor_type;location;lat;lon;timestamp;P1;durP1;ratioP1;P2;durP2;ratioP2
52764;SDS011;38650;44.536;18.664;2024-01-25T00:01:29;107.22;;;72.85;;
52764;SDS011;38650;44.536;18.664;2024-01-25T00:03:55;97.40;;;66.93;;
52764;SDS011;38650;44.536;18.664;2024-01-25T00:06:20;95.82;;;66.90;;
52764;SDS011;38650;44.536;18.664;2024-01-25T00:08:46;90.45;;;62.75;;
52764;SDS011;38650;44.536;18.664;2024-01-25T00:11:12;80.25;;;57.00;;
52764;SDS011;38650;44.536;18.664;2024-01-25T00:13:38;86.00;;;57.58;;
52764;SDS011;38650;44.536;18.664;2024-01-25T00:16:04;95.30;;;65.10;;
52764;SDS011;38650;44.536;18.664;2024-01-25T00:18:30;100.60;;;70.47;;
52764;SDS011;38650;44.536;18.664;2024-01-25T00:20:55;97.47;;;67.57;;
52764;SDS011;38650;44.536;18.664;2024-01-25T00:23:21;91.13;;;64.00;;
52764;SDS011;38650;44.536;18.664;2024-01-25T00:25:47;105.88;;;70.22;;
52764;SDS011;38650;44.536;18.664;2024-01-25T00:28:13;142.77;;;98.22;;
52764;SDS011;38650;44.536;18.664;2024-01-25T00:30:39;121.38;;;84.50;;
52764;SDS011;38650;44.536;18.664;2024-01-25T00:33:05;148.77;;;100.20;;
52764;SDS011;38650;44.536;18.664;2024-01-25T00:35:30;138.18;;;93.70;;
52764;SDS011;38650;44.536;18.664;2024-01-25T00:37:56;114.35;;;79.40;;
52764;SDS011;38650;44.536;18.664;2024-01-25T00:40:23;116.75;;;81.60;;
52764;SDS011;38650;44.536;18.664;2024-01-25T00:42:48;93.97;;;66.50;;
52764;SDS011;38650;44.536;18.664;2024-01-25T00:45:21;91.93;;;63.50;;
52764;SDS011;38650;44.536;18.664;2024-01-25T00:47:48;91.43;;;61.17;;
52764;SDS011;38650;44.536;18.664;2024-01-25T00:50:15;80.65;;;57.97;;
52764;SDS011;38650;44.536;18.664;2024-01-25T00:52:43;73.75;;;51.88;;
52764;SDS011;38650;44.536;18.664;2024-01-25T00:55:09;67.95;;;49.45;;
52764;SDS011;38650;44.536;18.664;2024-01-25T00:57:36;72.22;;;50.33;;
52764;SDS011;38650;44.536;18.664;2024-01-25T01:00:02;71.22;;;49.90;;
52764;SDS011;38650;44.536;18.664;2024-01-25T01:02:29;60.35;;;43.75;;
52764;SDS011;38650;44.536;18.664;2024-01-25T01:05:00;71.80;;;51.08;;
52764;SDS011;38650;44.536;18.664;2024-01-25T01:07:26;59.47;;;43.90;;
52764;SDS011;38650;44.536;18.664;2024-01-25T01:09:52;68.38;;;50.22;;
52764;SDS011;38650;44.536;18.664;2024-01-25T01:12:18;55.70;;;41.67;;
52764;SDS011;38650;44.536;18.664;2024-01-25T01:14:44;57.78;;;42.53;;
52764;SDS011;38650;44.536;18.664;2024-01-25T01:17:09;56.10;;;41.10;;
52764;SDS011;38650;44.536;18.664;2024-01-25T01:19:35;57.42;;;42.10;;
52764;SDS011;38650;44.536;18.664;2024-01-25T01:22:01;50.03;;;38.42;;
52764;SDS011;38650;44.536;18.664;2024-01-25T01:24:26;47.58;;;36.03;;
52764;SDS011;38650;44.536;18.664;2024-01-25T01:26:52;54.78;;;39.55;;
52764;SDS011;38650;44.536;18.664;2024-01-25T01:29:18;48.67;;;36.80;;
52764;SDS011;38650;44.536;18.664;2024-01-25T01:31:43;42.45;;;33.17;;
52764;SDS011;38650;44.536;18.664;2024-01-25T01:34:09;48.92;;;35.05;;
52764;SDS011;38650;44.536;18.664;2024-01-25T01:36:35;52.03;;;38.28;;
52764;SDS011;38650;44.536;18.664;2024-01-25T01:39:00;44.72;;;35.22;;
52764;SDS011;38650;44.536;18.664;2024-01-25T01:41:26;48.03;;;36.65;;
52764;SDS011;38650;44.536;18.664;2024-01-25T01:43:52;55.65;;;41.50;;
52764;SDS011;38650;44.536;18.664;2024-01-25T01:46:35;44.28;;;33.25;;
52764;SDS011;38650;44.536;18.664;2024-01-25T01:49:03;45.72;;;34.55;;
52764;SDS011;38650;44.536;18.664;2024-01-25T01:51:29;40.42;;;31.70;;
52764;SDS011;38650;44.536;18.664;2024-01-25T01:53:56;40.60;;;31.17;;
52764;SDS011;38650;44.536;18.664;2024-01-25T01:56:24;39.00;;;29.25;;
52764;SDS011;38650;44.536;18.664;2024-01-25T01:58:52;40.17;;;31.15;;
52764;SDS011;38650;44.536;18.664;2024-01-25T02:01:19;36.05;;;28.33;;
52764;SDS011;38650;44.536;18.664;2024-01-25T02:03:46;39.17;;;29.15;;
52764;SDS011;38650;44.536;18.664;2024-01-25T02:06:11;38.70;;;28.50;;
52764;SDS011;38650;44.536;18.664;2024-01-25T02:08:37;33.35;;;26.17;;
52764;SDS011;38650;44.536;18.664;2024-01-25T02:11:03;33.65;;;25.27;;
52764;SDS011;38650;44.536;18.664;2024-01-25T02:13:29;36.70;;;27.00;;
52764;SDS011;38650;44.536;18.664;2024-01-25T02:15:55;40.88;;;30.40;;
52764;SDS011;38650;44.536;18.664;2024-01-25T02:18:21;34.75;;;26.25;;
52764;SDS011;38650;44.536;18.664;2024-01-25T02:20:47;29.38;;;22.58;;
52764;SDS011;38650;44.536;18.664;2024-01-25T02:23:13;39.45;;;30.75;;
52764;SDS011;38650;44.536;18.664;2024-01-25T02:25:39;34.47;;;26.77;;
52764;SDS011;38650;44.536;18.664;2024-01-25T02:28:05;30.77;;;24.20;;
52764;SDS011;38650;44.536;18.664;2024-01-25T02:30:30;69.38;;;50.70;;
52764;SDS011;38650;44.536;18.664;2024-01-25T02:32:56;87.30;;;61.47;;
52764;SDS011;38650;44.536;18.664;2024-01-25T02:35:22;90.03;;;61.90;;
52764;SDS011;38650;44.536;18.664;2024-01-25T02:37:48;68.85;;;49.25;;
52764;SDS011;38650;44.536;18.664;2024-01-25T02:40:15;60.03;;;44.17;;
52764;SDS011;38650;44.536;18.664;2024-01-25T02:42:41;75.65;;;57.22;;
52764;SDS011;38650;44.536;18.664;2024-01-25T02:45:07;66.72;;;49.42;;
52764;SDS011;38650;44.536;18.664;2024-01-25T02:47:33;79.70;;;56.30;;
52764;SDS011;38650;44.536;18.664;2024-01-25T02:49:59;76.82;;;56.88;;
52764;SDS011;38650;44.536;18.664;2024-01-25T02:52:24;73.72;;;54.92;;
52764;SDS011;38650;44.536;18.664;2024-01-25T02:54:50;75.85;;;55.05;;
52764;SDS011;38650;44.536;18.664;2024-01-25T02:57:16;72.75;;;52.15;;
52764;SDS011;38650;44.536;18.664;2024-01-25T02:59:41;74.05;;;53.80;;
52764;SDS011;38650;44.536;18.664;2024-01-25T03:02:07;69.38;;;51.22;;
52764;SDS011;38650;44.536;18.664;2024-01-25T03:04:33;65.65;;;49.55;;
52764;SDS011;38650;44.536;18.664;2024-01-25T03:06:58;59.33;;;45.45;;
52764;SDS011;38650;44.536;18.664;2024-01-25T03:09:24;60.95;;;44.15;;
52764;SDS011;38650;44.536;18.664;2024-01-25T03:11:50;46.25;;;37.85;;
52764;SDS011;38650;44.536;18.664;2024-01-25T03:14:15;50.63;;;37.08;;
52764;SDS011;38650;44.536;18.664;2024-01-25T03:16:41;46.15;;;34.85;;
52764;SDS011;38650;44.536;18.664;2024-01-25T03:19:08;43.65;;;33.55;;
52764;SDS011;38650;44.536;18.664;2024-01-25T03:21:35;41.22;;;32.03;;
52764;SDS011;38650;44.536;18.664;2024-01-25T03:24:00;37.17;;;28.95;;
52764;SDS011;38650;44.536;18.664;2024-01-25T03:26:29;44.80;;;35.83;;
52764;SDS011;38650;44.536;18.664;2024-01-25T03:28:55;42.13;;;33.40;;
52764;SDS011;38650;44.536;18.664;2024-01-25T03:31:20;36.92;;;28.85;;
52764;SDS011;38650;44.536;18.664;2024-01-25T03:33:46;39.78;;;29.73;;
52764;SDS011;38650;44.536;18.664;2024-01-25T03:36:15;41.33;;;31.33;;
52764;SDS011;38650;44.536;18.664;2024-01-25T03:38:40;36.67;;;28.98;;
52764;SDS011;38650;44.536;18.664;2024-01-25T03:41:06;49.58;;;39.00;;
52764;SDS011;38650;44.536;18.664;2024-01-25T03:43:32;41.47;;;31.42;;
52764;SDS011;38650;44.536;18.664;2024-01-25T03:45:58;60.20;;;43.40;;
52764;SDS011;38650;44.536;18.664;2024-01-25T03:48:24;45.05;;;34.80;;
52764;SDS011;38650;44.536;18.664;2024-01-25T03:50:49;39.65;;;30.77;;
52764;SDS011;38650;44.536;18.664;2024-01-25T03:53:15;51.20;;;38.42;;
52764;SDS011;38650;44.536;18.664;2024-01-25T03:55:41;53.05;;;38.97;;
52764;SDS011;38650;44.536;18.664;2024-01-25T03:58:06;72.55;;;51.55;;
52764;SDS011;38650;44.536;18.664;2024-01-25T04:00:33;56.47;;;42.78;;
52764;SDS011;38650;44.536;18.664;2024-01-25T04:02:58;45.13;;;34.60;;
52764;SDS011;38650;44.536;18.664;2024-01-25T04:05:25;51.03;;;38.40;;
52764;SDS011;38650;44.536;18.664;2024-01-25T04:07:51;59.75;;;43.80;;
52764;SDS011;38650;44.536;18.664;2024-01-25T04:10:17;65.43;;;47.88;;
52764;SDS011;38650;44.536;18.664;2024-01-25T04:12:43;55.33;;;43.55;;
52764;SDS011;38650;44.536;18.664;2024-01-25T04:15:08;64.60;;;46.42;;
52764;SDS011;38650;44.536;18.664;2024-01-25T04:17:34;50.08;;;36.63;;
52764;SDS011;38650;44.536;18.664;2024-01-25T04:20:00;48.05;;;38.00;;
52764;SDS011;38650;44.536;18.664;2024-01-25T04:22:26;48.90;;;36.83;;
52764;SDS011;38650;44.536;18.664;2024-01-25T04:24:52;45.17;;;34.72;;
52764;SDS011;38650;44.536;18.664;2024-01-25T04:27:17;40.20;;;31.08;;
52764;SDS011;38650;44.536;18.664;2024-01-25T04:29:43;43.90;;;33.95;;
52764;SDS011;38650;44.536;18.664;2024-01-25T04:32:09;43.58;;;34.95;;
52764;SDS011;38650;44.536;18.664;2024-01-25T04:34:35;38.38;;;29.98;;
52764;SDS011;38650;44.536;18.664;2024-01-25T04:37:01;33.60;;;26.30;;
52764;SDS011;38650;44.536;18.664;2024-01-25T04:39:26;35.28;;;26.50;;
52764;SDS011;38650;44.536;18.664;2024-01-25T04:41:52;39.60;;;30.73;;
52764;SDS011;38650;44.536;18.664;2024-01-25T04:44:18;35.35;;;28.67;;
52764;SDS011;38650;44.536;18.664;2024-01-25T04:46:44;29.85;;;23.92;;
52764;SDS011;38650;44.536;18.664;2024-01-25T04:49:09;30.27;;;22.70;;
52764;SDS011;38650;44.536;18.664;2024-01-25T04:51:35;29.65;;;23.35;;
52764;SDS011;38650;44.536;18.664;2024-01-25T04:54:01;27.52;;;22.80;;
52764;SDS011;38650;44.536;18.664;2024-01-25T04:56:27;28.90;;;23.30;;
52764;SDS011;38650;44.536;18.664;2024-01-25T04:58:53;26.75;;;20.45;;
52764;SDS011;38650;44.536;18.664;2024-01-25T05:01:19;27.35;;;20.48;;
52764;SDS011;38650;44.536;18.664;2024-01-25T05:03:45;28.55;;;20.98;;
52764;SDS011;38650;44.536;18.664;2024-01-25T05:06:10;35.47;;;26.60;;
52764;SDS011;38650;44.536;18.664;2024-01-25T05:08:36;35.83;;;28.95;;
52764;SDS011;38650;44.536;18.664;2024-01-25T05:11:02;27.90;;;21.38;;
52764;SDS011;38650;44.536;18.664;2024-01-25T05:13:28;24.83;;;20.73;;
52764;SDS011;38650;44.536;18.664;2024-01-25T05:15:54;24.63;;;20.92;;
52764;SDS011;38650;44.536;18.664;2024-01-25T05:18:19;26.13;;;21.85;;
52764;SDS011;38650;44.536;18.664;2024-01-25T05:20:45;26.90;;;20.02;;
52764;SDS011;38650;44.536;18.664;2024-01-25T05:23:11;21.25;;;18.75;;
52764;SDS011;38650;44.536;18.664;2024-01-25T05:25:36;20.48;;;17.33;;
52764;SDS011;38650;44.536;18.664;2024-01-25T05:28:02;19.10;;;16.00;;
52764;SDS011;38650;44.536;18.664;2024-01-25T05:30:28;17.00;;;13.85;;
52764;SDS011;38650;44.536;18.664;2024-01-25T05:32:54;17.60;;;14.25;;
52764;SDS011;38650;44.536;18.664;2024-01-25T05:35:20;20.00;;;15.75;;
52764;SDS011;38650;44.536;18.664;2024-01-25T05:37:46;17.73;;;14.25;;
52764;SDS011;38650;44.536;18.664;2024-01-25T05:40:12;21.05;;;15.77;;
52764;SDS011;38650;44.536;18.664;2024-01-25T05:42:38;18.92;;;15.45;;
52764;SDS011;38650;44.536;18.664;2024-01-25T05:45:05;18.63;;;14.43;;
52764;SDS011;38650;44.536;18.664;2024-01-25T05:47:31;19.75;;;15.00;;
52764;SDS011;38650;44.536;18.664;2024-01-25T05:49:57;24.10;;;19.00;;
52764;SDS011;38650;44.536;18.664;2024-01-25T05:52:23;32.35;;;23.38;;
52764;SDS011;38650;44.536;18.664;2024-01-25T05:54:49;27.42;;;19.80;;
52764;SDS011;38650;44.536;18.664;2024-01-25T05:57:15;23.65;;;17.25;;
52764;SDS011;38650;44.536;18.664;2024-01-25T05:59:42;25.30;;;18.83;;
52764;SDS011;38650;44.536;18.664;2024-01-25T06:02:09;23.23;;;17.88;;
52764;SDS011;38650;44.536;18.664;2024-01-25T06:04:34;22.88;;;16.98;;
52764;SDS011;38650;44.536;18.664;2024-01-25T06:07:00;22.25;;;18.38;;
52764;SDS011;38650;44.536;18.664;2024-01-25T06:09:26;35.10;;;26.80;;
52764;SDS011;38650;44.536;18.664;2024-01-25T06:11:52;38.10;;;29.83;;
52764;SDS011;38650;44.536;18.664;2024-01-25T06:14:18;28.45;;;22.60;;
52764;SDS011;38650;44.536;18.664;2024-01-25T06:16:44;29.15;;;21.83;;
52764;SDS011;38650;44.536;18.664;2024-01-25T06:19:10;27.35;;;20.45;;
52764;SDS011;38650;44.536;18.664;2024-01-25T06:21:36;23.63;;;18.88;;
52764;SDS011;38650;44.536;18.664;2024-01-25T06:24:03;26.20;;;18.70;;
52764;SDS011;38650;44.536;18.664;2024-01-25T06:26:32;24.60;;;18.42;;
52764;SDS011;38650;44.536;18.664;2024-01-25T06:28:58;20.33;;;16.73;;
52764;SDS011;38650;44.536;18.664;2024-01-25T06:31:24;19.95;;;15.80;;
52764;SDS011;38650;44.536;18.664;2024-01-25T06:33:50;32.20;;;23.42;;
52764;SDS011;38650;44.536;18.664;2024-01-25T06:36:18;36.92;;;28.08;;
52764;SDS011;38650;44.536;18.664;2024-01-25T06:38:44;47.13;;;35.97;;
52764;SDS011;38650;44.536;18.664;2024-01-25T06:41:10;42.80;;;33.83;;
52764;SDS011;38650;44.536;18.664;2024-01-25T06:43:35;41.50;;;32.75;;
52764;SDS011;38650;44.536;18.664;2024-01-25T06:46:01;52.33;;;37.22;;
52764;SDS011;38650;44.536;18.664;2024-01-25T06:48:27;38.55;;;31.40;;
52764;SDS011;38650;44.536;18.664;2024-01-25T06:50:53;47.20;;;36.42;;
52764;SDS011;38650;44.536;18.664;2024-01-25T06:53:19;41.85;;;32.30;;
52764;SDS011;38650;44.536;18.664;2024-01-25T06:55:45;37.05;;;28.70;;
52764;SDS011;38650;44.536;18.664;2024-01-25T06:58:11;34.65;;;26.15;;
52764;SDS011;38650;44.536;18.664;2024-01-25T07:00:38;45.47;;;34.05;;
52764;SDS011;38650;44.536;18.664;2024-01-25T07:03:04;55.60;;;41.63;;
52764;SDS011;38650;44.536;18.664;2024-01-25T07:05:30;54.28;;;41.08;;
52764;SDS011;38650;44.536;18.664;2024-01-25T07:07:58;49.13;;;36.72;;
52764;SDS011;38650;44.536;18.664;2024-01-25T07:10:24;41.80;;;33.30;;
52764;SDS011;38650;44.536;18.664;2024-01-25T07:12:51;36.72;;;29.27;;
52764;SDS011;38650;44.536;18.664;2024-01-25T07:15:18;117.13;;;86.40;;
52764;SDS011;38650;44.536;18.664;2024-01-25T07:17:44;66.75;;;52.15;;
52764;SDS011;38650;44.536;18.664;2024-01-25T07:20:10;94.75;;;70.38;;
52764;SDS011;38650;44.536;18.664;2024-01-25T07:22:36;97.95;;;69.82;;
52764;SDS011;38650;44.536;18.664;2024-01-25T07:25:02;71.50;;;55.08;;
52764;SDS011;38650;44.536;18.664;2024-01-25T07:27:28;56.42;;;42.78;;
52764;SDS011;38650;44.536;18.664;2024-01-25T07:29:54;45.72;;;36.70;;
52764;SDS011;38650;44.536;18.664;2024-01-25T07:32:20;43.92;;;34.50;;
52764;SDS011;38650;44.536;18.664;2024-01-25T07:34:46;43.47;;;34.40;;
52764;SDS011;38650;44.536;18.664;2024-01-25T07:37:12;37.35;;;29.80;;
52764;SDS011;38650;44.536;18.664;2024-01-25T07:39:40;46.80;;;34.03;;
52764;SDS011;38650;44.536;18.664;2024-01-25T07:42:09;39.08;;;30.85;;
52764;SDS011;38650;44.536;18.664;2024-01-25T07:44:35;43.42;;;32.25;;
52764;SDS011;38650;44.536;18.664;2024-01-25T07:47:00;34.20;;;27.27;;
52764;SDS011;38650;44.536;18.664;2024-01-25T07:49:27;53.53;;;39.40;;
52764;SDS011;38650;44.536;18.664;2024-01-25T07:51:54;52.35;;;40.00;;
52764;SDS011;38650;44.536;18.664;2024-01-25T07:54:22;37.67;;;32.10;;
52764;SDS011;38650;44.536;18.664;2024-01-25T07:56:48;40.97;;;32.67;;
52764;SDS011;38650;44.536;18.664;2024-01-25T07:59:14;36.00;;;31.02;;
52764;SDS011;38650;44.536;18.664;2024-01-25T08:01:41;98.30;;;68.70;;
52764;SDS011;38650;44.536;18.664;2024-01-25T08:04:08;81.93;;;57.95;;
52764;SDS011;38650;44.536;18.664;2024-01-25T08:06:34;101.68;;;74.97;;
52764;SDS011;38650;44.536;18.664;2024-01-25T08:09:02;117.32;;;86.50;;
52764;SDS011;38650;44.536;18.664;2024-01-25T08:11:28;91.50;;;69.82;;
52764;SDS011;38650;44.536;18.664;2024-01-25T08:13:53;79.28;;;62.83;;
52764;SDS011;38650;44.536;18.664;2024-01-25T08:16:19;70.38;;;53.50;;
52764;SDS011;38650;44.536;18.664;2024-01-25T08:18:45;74.07;;;57.60;;
52764;SDS011;38650;44.536;18.664;2024-01-25T08:21:12;65.57;;;53.90;;
52764;SDS011;38650;44.536;18.664;2024-01-25T08:23:38;91.57;;;73.20;;
52764;SDS011;38650;44.536;18.664;2024-01-25T08:26:05;94.65;;;75.55;;
52764;SDS011;38650;44.536;18.664;2024-01-25T08:28:35;86.05;;;69.72;;
52764;SDS011;38650;44.536;18.664;2024-01-25T08:31:11;71.15;;;60.55;;
52764;SDS011;38650;44.536;18.664;2024-01-25T08:33:37;76.43;;;60.90;;
52764;SDS011;38650;44.536;18.664;2024-01-25T08:36:19;83.22;;;66.28;;
52764;SDS011;38650;44.536;18.664;2024-01-25T08:38:45;91.03;;;75.88;;
52764;SDS011;38650;44.536;18.664;2024-01-25T08:41:12;90.78;;;78.43;;
52764;SDS011;38650;44.536;18.664;2024-01-25T08:43:41;82.57;;;73.05;;
52764;SDS011;38650;44.536;18.664;2024-01-25T08:46:08;76.03;;;67.40;;
52764;SDS011;38650;44.536;18.664;2024-01-25T08:48:34;83.70;;;70.82;;
52764;SDS011;38650;44.536;18.664;2024-01-25T08:51:00;85.35;;;71.25;;
52764;SDS011;38650;44.536;18.664;2024-01-25T08:53:26;71.55;;;63.30;;
52764;SDS011;38650;44.536;18.664;2024-01-25T08:55:55;67.10;;;59.70;;
52764;SDS011;38650;44.536;18.664;2024-01-25T08:58:21;63.88;;;57.08;;
52764;SDS011;38650;44.536;18.664;2024-01-25T09:00:47;62.28;;;55.42;;
52764;SDS011;38650;44.536;18.664;2024-01-25T09:03:13;71.13;;;62.30;;
52764;SDS011;38650;44.536;18.664;2024-01-25T09:05:40;98.18;;;80.47;;
52764;SDS011;38650;44.536;18.664;2024-01-25T09:08:10;93.90;;;80.25;;
52764;SDS011;38650;44.536;18.664;2024-01-25T09:10:37;76.40;;;68.05;;
52764;SDS011;38650;44.536;18.664;2024-01-25T09:13:03;63.10;;;56.20;;
52764;SDS011;38650;44.536;18.664;2024-01-25T09:15:29;55.38;;;49.33;;
52764;SDS011;38650;44.536;18.664;2024-01-25T09:17:55;45.85;;;41.13;;
52764;SDS011;38650;44.536;18.664;2024-01-25T09:20:20;37.08;;;33.20;;
52764;SDS011;38650;44.536;18.664;2024-01-25T09:22:46;30.10;;;27.00;;
52764;SDS011;38650;44.536;18.664;2024-01-25T09:25:12;27.52;;;24.73;;
52764;SDS011;38650;44.536;18.664;2024-01-25T09:27:38;24.52;;;22.08;;
52764;SDS011;38650;44.536;18.664;2024-01-25T09:30:04;25.48;;;22.98;;
52764;SDS011;38650;44.536;18.664;2024-01-25T09:32:30;25.33;;;22.73;;
52764;SDS011;38650;44.536;18.664;2024-01-25T09:34:56;27.45;;;24.45;;
52764;SDS011;38650;44.536;18.664;2024-01-25T09:37:22;27.48;;;24.67;;
52764;SDS011;38650;44.536;18.664;2024-01-25T09:39:49;28.27;;;25.30;;
52764;SDS011;38650;44.536;18.664;2024-01-25T09:42:16;33.70;;;30.10;;
52764;SDS011;38650;44.536;18.664;2024-01-25T09:44:43;31.48;;;28.05;;
52764;SDS011;38650;44.536;18.664;2024-01-25T09:47:09;24.40;;;21.80;;
52764;SDS011;38650;44.536;18.664;2024-01-25T09:49:36;19.48;;;17.38;;
52764;SDS011;38650;44.536;18.664;2024-01-25T09:52:02;19.40;;;17.38;;
52764;SDS011;38650;44.536;18.664;2024-01-25T09:54:35;20.05;;;17.98;;
52764;SDS011;38650;44.536;18.664;2024-01-25T09:57:16;18.23;;;16.25;;
52764;SDS011;38650;44.536;18.664;2024-01-25T09:59:48;15.18;;;13.57;;
52764;SDS011;38650;44.536;18.664;2024-01-25T10:02:15;28.63;;;24.40;;
52764;SDS011;38650;44.536;18.664;2024-01-25T10:04:41;28.50;;;23.42;;
52764;SDS011;38650;44.536;18.664;2024-01-25T10:07:07;22.65;;;19.90;;
52764;SDS011;38650;44.536;18.664;2024-01-25T10:09:39;19.60;;;17.50;;
52764;SDS011;38650;44.536;18.664;2024-01-25T10:14:32;14.32;;;11.82;;
52764;SDS011;38650;44.536;18.664;2024-01-25T10:16:57;11.88;;;10.43;;
52764;SDS011;38650;44.536;18.664;2024-01-25T10:19:23;7.10;;;6.40;;
52764;SDS011;38650;44.536;18.664;2024-01-25T10:21:50;7.90;;;7.07;;
52764;SDS011;38650;44.536;18.664;2024-01-25T10:24:16;7.47;;;6.78;;
52764;SDS011;38650;44.536;18.664;2024-01-25T10:26:42;7.75;;;6.95;;
52764;SDS011;38650;44.536;18.664;2024-01-25T10:29:08;6.90;;;6.20;;
52764;SDS011;38650;44.536;18.664;2024-01-25T10:31:36;6.40;;;5.80;;
52764;SDS011;38650;44.536;18.664;2024-01-25T10:34:06;5.65;;;5.05;;
52764;SDS011;38650;44.536;18.664;2024-01-25T10:36:36;5.57;;;4.80;;
52764;SDS011;38650;44.536;18.664;2024-01-25T10:39:03;5.00;;;4.57;;
52764;SDS011;38650;44.536;18.664;2024-01-25T10:41:30;5.47;;;4.97;;
52764;SDS011;38650;44.536;18.664;2024-01-25T10:43:57;5.50;;;5.00;;
52764;SDS011;38650;44.536;18.664;2024-01-25T10:46:23;7.25;;;5.70;;
52764;SDS011;38650;44.536;18.664;2024-01-25T10:48:50;6.07;;;5.50;;
52764;SDS011;38650;44.536;18.664;2024-01-25T10:51:16;6.82;;;6.13;;
52764;SDS011;38650;44.536;18.664;2024-01-25T10:53:45;7.38;;;6.20;;
52764;SDS011;38650;44.536;18.664;2024-01-25T10:56:12;7.10;;;6.40;;
52764;SDS011;38650;44.536;18.664;2024-01-25T10:58:40;7.82;;;6.78;;
52764;SDS011;38650;44.536;18.664;2024-01-25T11:01:10;5.20;;;4.80;;
52764;SDS011;38650;44.536;18.664;2024-01-25T11:03:36;5.95;;;5.35;;
52764;SDS011;38650;44.536;18.664;2024-01-25T11:06:08;4.95;;;4.45;;
52764;SDS011;38650;44.536;18.664;2024-01-25T11:08:38;4.55;;;3.83;;
52764;SDS011;38650;44.536;18.664;2024-01-25T11:11:08;4.70;;;4.30;;
52764;SDS011;38650;44.536;18.664;2024-01-25T11:13:38;4.35;;;4.05;;
52764;SDS011;38650;44.536;18.664;2024-01-25T11:16:11;4.63;;;4.22;;
52764;SDS011;38650;44.536;18.664;2024-01-25T11:18:50;4.60;;;4.20;;
52764;SDS011;38650;44.536;18.664;2024-01-25T11:24:13;4.05;;;3.75;;
52764;SDS011;38650;44.536;18.664;2024-01-25T11:26:41;4.50;;;4.10;;
52764;SDS011;38650;44.536;18.664;2024-01-25T11:29:08;3.90;;;3.60;;
52764;SDS011;38650;44.536;18.664;2024-01-25T11:31:34;4.30;;;3.90;;
52764;SDS011;38650;44.536;18.664;2024-01-25T11:34:00;3.80;;;3.42;;
52764;SDS011;38650;44.536;18.664;2024-01-25T11:36:26;5.60;;;4.70;;
52764;SDS011;38650;44.536;18.664;2024-01-25T11:38:53;5.30;;;4.80;;
52764;SDS011;38650;44.536;18.664;2024-01-25T11:41:19;5.00;;;4.60;;
52764;SDS011;38650;44.536;18.664;2024-01-25T11:43:45;4.50;;;4.10;;
52764;SDS011;38650;44.536;18.664;2024-01-25T11:46:13;5.78;;;4.60;;
52764;SDS011;38650;44.536;18.664;2024-01-25T11:48:39;5.00;;;4.60;;
52764;SDS011;38650;44.536;18.664;2024-01-25T11:51:06;4.57;;;4.18;;
52764;SDS011;38650;44.536;18.664;2024-01-25T11:53:34;5.65;;;4.45;;
52764;SDS011;38650;44.536;18.664;2024-01-25T11:56:00;5.63;;;5.13;;
52764;SDS011;38650;44.536;18.664;2024-01-25T11:58:27;6.07;;;5.38;;
52764;SDS011;38650;44.536;18.664;2024-01-25T12:00:53;5.40;;;5.00;;
52764;SDS011;38650;44.536;18.664;2024-01-25T12:03:19;6.53;;;5.93;;
52764;SDS011;38650;44.536;18.664;2024-01-25T12:05:46;7.93;;;7.13;;
52764;SDS011;38650;44.536;18.664;2024-01-25T12:08:12;9.57;;;8.57;;
52764;SDS011;38650;44.536;18.664;2024-01-25T12:10:38;10.25;;;9.05;;
52764;SDS011;38650;44.536;18.664;2024-01-25T12:13:08;9.93;;;9.02;;
52764;SDS011;38650;44.536;18.664;2024-01-25T12:15:34;5.53;;;5.03;;
52764;SDS011;38650;44.536;18.664;2024-01-25T12:18:00;2.45;;;2.25;;
52764;SDS011;38650;44.536;18.664;2024-01-25T12:20:29;1.45;;;1.27;;
52764;SDS011;38650;44.536;18.664;2024-01-25T12:22:57;1.63;;;1.27;;
52764;SDS011;38650;44.536;18.664;2024-01-25T12:25:23;1.40;;;1.30;;
52764;SDS011;38650;44.536;18.664;2024-01-25T12:27:49;1.88;;;1.20;;
52764;SDS011;38650;44.536;18.664;2024-01-25T12:30:15;1.73;;;1.50;;
52764;SDS011;38650;44.536;18.664;2024-01-25T12:32:41;2.50;;;2.22;;
52764;SDS011;38650;44.536;18.664;2024-01-25T12:35:07;2.25;;;2.05;;
52764;SDS011;38650;44.536;18.664;2024-01-25T12:37:33;1.88;;;1.67;;
52764;SDS011;38650;44.536;18.664;2024-01-25T12:40:00;1.20;;;1.10;;
52764;SDS011;38650;44.536;18.664;2024-01-25T12:42:26;1.70;;;1.33;;
52764;SDS011;38650;44.536;18.664;2024-01-25T12:44:52;1.55;;;1.45;;
52764;SDS011;38650;44.536;18.664;2024-01-25T12:47:21;0.93;;;0.90;;
52764;SDS011;38650;44.536;18.664;2024-01-25T12:49:47;0.90;;;0.90;;
52764;SDS011;38650;44.536;18.664;2024-01-25T12:52:13;1.90;;;1.70;;
52764;SDS011;38650;44.536;18.664;2024-01-25T12:54:40;0.95;;;0.88;;
52764;SDS011;38650;44.536;18.664;2024-01-25T12:57:06;2.63;;;1.92;;
52764;SDS011;38650;44.536;18.664;2024-01-25T12:59:33;3.38;;;1.70;;
52764;SDS011;38650;44.536;18.664;2024-01-25T13:01:59;1.40;;;1.30;;
52764;SDS011;38650;44.536;18.664;2024-01-25T13:04:25;1.30;;;0.88;;
52764;SDS011;38650;44.536;18.664;2024-01-25T13:06:55;1.95;;;1.42;;
52764;SDS011;38650;44.536;18.664;2024-01-25T13:09:21;1.40;;;1.10;;
52764;SDS011;38650;44.536;18.664;2024-01-25T13:11:47;1.15;;;1.00;;
52764;SDS011;38650;44.536;18.664;2024-01-25T13:14:13;1.30;;;1.20;;
52764;SDS011;38650;44.536;18.664;2024-01-25T13:16:39;1.50;;;0.82;;
52764;SDS011;38650;44.536;18.664;2024-01-25T13:19:05;1.27;;;0.90;;
52764;SDS011;38650;44.536;18.664;2024-01-25T13:21:31;1.33;;;0.90;;
52764;SDS011;38650;44.536;18.664;2024-01-25T13:23:59;0.80;;;0.75;;
52764;SDS011;38650;44.536;18.664;2024-01-25T13:26:24;1.40;;;1.30;;
52764;SDS011;38650;44.536;18.664;2024-01-25T13:28:50;2.13;;;1.40;;
52764;SDS011;38650;44.536;18.664;2024-01-25T13:31:16;1.20;;;1.10;;
52764;SDS011;38650;44.536;18.664;2024-01-25T13:33:42;1.95;;;1.67;;
52764;SDS011;38650;44.536;18.664;2024-01-25T13:36:07;2.10;;;1.25;;
52764;SDS011;38650;44.536;18.664;2024-01-25T13:38:36;3.45;;;1.30;;
52764;SDS011;38650;44.536;18.664;2024-01-25T13:41:01;3.15;;;2.08;;
52764;SDS011;38650;44.536;18.664;2024-01-25T13:43:27;3.65;;;3.30;;
52764;SDS011;38650;44.536;18.664;2024-01-25T13:45:53;2.47;;;2.28;;
52764;SDS011;38650;44.536;18.664;2024-01-25T13:48:20;1.20;;;0.90;;
52764;SDS011;38650;44.536;18.664;2024-01-25T13:50:46;0.95;;;0.70;;
52764;SDS011;38650;44.536;18.664;2024-01-25T13:53:11;1.63;;;1.23;;
52764;SDS011;38650;44.536;18.664;2024-01-25T13:55:37;1.23;;;1.10;;
52764;SDS011;38650;44.536;18.664;2024-01-25T13:58:03;1.02;;;0.68;;
52764;SDS011;38650;44.536;18.664;2024-01-25T14:00:28;0.85;;;0.65;;
52764;SDS011;38650;44.536;18.664;2024-01-25T14:02:54;0.57;;;0.57;;
52764;SDS011;38650;44.536;18.664;2024-01-25T14:05:20;0.73;;;0.65;;
52764;SDS011;38650;44.536;18.664;2024-01-25T14:07:46;0.60;;;0.50;;
52764;SDS011;38650;44.536;18.664;2024-01-25T14:10:11;0.50;;;0.50;;
52764;SDS011;38650;44.536;18.664;2024-01-25T14:12:37;1.10;;;0.90;;
52764;SDS011;38650;44.536;18.664;2024-01-25T14:15:03;1.17;;;1.08;;
52764;SDS011;38650;44.536;18.664;2024-01-25T14:17:30;4.60;;;1.00;;